createdAt,value
2017-12-11T00:04:12.604Z,89.28
2017-12-11T00:10:16.275Z,90.42
2017-12-11T00:16:20.691Z,90.34
2017-12-11T00:29:03.778Z,89.97
2017-12-11T00:35:07.326Z,87.42
2017-12-11T00:41:11.436Z,87.52
2017-12-11T00:47:15.828Z,85.27
2017-12-11T00:53:19.436Z,80.88
2017-12-11T00:59:23.043Z,78.09
2017-12-11T01:05:26.728Z,77.33
2017-12-11T01:11:30.416Z,76.38
2017-12-11T01:17:34.773Z,76.26
2017-12-11T01:23:38.361Z,75.65
2017-12-11T01:29:42.768Z,76.20
2017-12-11T01:35:46.374Z,76.35
2017-12-11T01:41:49.891Z,75.59
2017-12-11T01:47:53.703Z,75.23
2017-12-11T01:53:58.364Z,76.69
2017-12-11T02:00:01.996Z,76.83
2017-12-11T02:06:05.543Z,76.46
2017-12-11T02:12:09.088Z,76.33
2017-12-11T02:18:12.649Z,76.23
2017-12-11T02:24:16.269Z,75.50
2017-12-11T02:30:20.619Z,74.18
2017-12-11T02:36:24.251Z,74.03
2017-12-11T02:42:28.116Z,74.22
2017-12-11T02:48:31.868Z,74.34
2017-12-11T02:54:35.428Z,75.04
2017-12-11T03:00:39.879Z,75.78
2017-12-11T03:06:43.467Z,75.95
2017-12-11T03:12:47.120Z,76.79
2017-12-11T03:18:51.241Z,76.72
2017-12-11T03:24:55.981Z,77.69
2017-12-11T03:30:59.570Z,77.75
2017-12-11T03:37:03.187Z,77.39
2017-12-11T03:43:06.766Z,77.17
2017-12-11T03:49:10.526Z,77.65
2017-12-11T03:55:14.110Z,77.31
2017-12-11T04:01:17.697Z,77.74
2017-12-11T04:07:22.253Z,77.53
2017-12-11T04:13:26.275Z,77.16
2017-12-11T04:19:30.726Z,76.78
2017-12-11T04:25:34.288Z,76.73
2017-12-11T04:31:37.836Z,76.48
2017-12-11T04:37:41.422Z,76.83
2017-12-11T04:43:45.162Z,77.35
2017-12-11T04:49:48.711Z,76.36
2017-12-11T04:55:53.266Z,77.33
2017-12-11T05:01:56.966Z,78.47
2017-12-11T05:08:00.703Z,78.22
2017-12-11T05:14:04.304Z,77.76
2017-12-11T05:20:07.868Z,78.70
2017-12-11T05:26:12.338Z,79.09
2017-12-11T05:32:16.697Z,79.67
2017-12-11T05:38:20.620Z,79.51
2017-12-11T05:44:24.642Z,78.85
2017-12-11T05:50:28.581Z,78.92
2017-12-11T05:56:32.373Z,79.52
2017-12-11T06:02:36.687Z,79.26
2017-12-11T06:08:40.401Z,79.38
2017-12-11T06:14:44.006Z,79.72
2017-12-11T06:20:47.721Z,79.78
2017-12-11T06:26:51.605Z,80.13
2017-12-11T06:32:55.629Z,80.90
2017-12-11T06:39:00.190Z,81.06
2017-12-11T06:45:03.829Z,80.97
2017-12-11T06:51:07.443Z,81.66
2017-12-11T06:57:11.169Z,81.96
2017-12-11T07:03:14.778Z,81.87
2017-12-11T07:09:18.661Z,82.20
2017-12-11T07:15:22.594Z,82.13
2017-12-11T07:21:27.007Z,83.27
2017-12-11T07:27:30.603Z,83.53
2017-12-11T07:33:34.253Z,84.15
2017-12-11T07:39:37.818Z,84.10
2017-12-11T07:45:43.038Z,84.94
2017-12-11T07:51:46.987Z,85.00
2017-12-11T07:57:51.196Z,84.03
2017-12-11T08:03:55.028Z,85.25
2017-12-11T08:09:59.330Z,85.43
2017-12-11T08:16:02.927Z,85.23
2017-12-11T08:22:06.482Z,84.44
2017-12-11T08:28:10.018Z,82.98
2017-12-11T08:34:13.686Z,83.08
2017-12-11T08:40:17.245Z,83.39
2017-12-11T08:46:20.814Z,83.66
2017-12-11T08:52:24.864Z,83.52
2017-12-11T08:58:28.566Z,83.19
2017-12-11T09:04:33.032Z,82.26
2017-12-11T09:10:36.598Z,81.13
2017-12-11T09:16:40.935Z,79.99
2017-12-11T09:22:44.740Z,81.06
2017-12-11T09:28:49.041Z,82.13
2017-12-11T09:34:53.046Z,82.53
2017-12-11T09:40:56.789Z,82.42
2017-12-11T09:47:00.570Z,82.73
2017-12-11T09:53:04.951Z,82.68
2017-12-11T09:59:08.472Z,82.89
2017-12-11T10:05:12.036Z,82.84
2017-12-11T10:11:15.587Z,83.94
2017-12-11T10:17:19.131Z,84.13
2017-12-11T10:23:23.181Z,84.36
2017-12-11T10:29:26.804Z,84.42
2017-12-11T10:35:31.995Z,84.23
2017-12-11T10:41:36.324Z,84.53
2017-12-11T10:47:39.935Z,85.03
2017-12-11T10:53:44.416Z,85.50
2017-12-11T10:59:48.737Z,87.55
2017-12-11T11:05:52.488Z,87.76
2017-12-11T11:11:56.253Z,87.46
2017-12-11T11:17:59.791Z,86.98
2017-12-11T11:24:03.323Z,87.22
2017-12-11T11:30:06.859Z,87.51
2017-12-11T11:36:11.278Z,87.50
2017-12-11T11:42:14.831Z,87.73
2017-12-11T11:48:18.691Z,88.04
2017-12-11T11:54:22.219Z,88.04
2017-12-11T12:00:26.530Z,88.95
2017-12-11T12:06:30.059Z,89.62
2017-12-11T12:12:33.662Z,89.96
2017-12-11T12:18:37.211Z,89.73
2017-12-11T12:24:40.835Z,90.28
2017-12-11T12:30:44.382Z,90.36
2017-12-11T12:36:47.945Z,91.08
2017-12-11T12:42:51.865Z,91.35
2017-12-11T12:48:55.986Z,91.54
2017-12-11T12:54:59.529Z,91.68
2017-12-11T13:01:03.071Z,90.39
2017-12-11T13:07:07.390Z,90.23
2017-12-11T13:13:10.996Z,91.26
2017-12-11T13:19:15.286Z,90.97
2017-12-11T13:25:18.866Z,91.38
2017-12-11T13:31:22.539Z,91.20
2017-12-11T13:37:26.470Z,91.08
2017-12-11T13:43:30.015Z,91.38
2017-12-11T13:49:33.667Z,91.51
2017-12-11T13:55:37.215Z,91.29
2017-12-11T14:01:40.741Z,91.64
2017-12-11T14:07:44.313Z,91.66
2017-12-11T14:13:48.618Z,91.87
2017-12-11T14:19:52.687Z,92.00
2017-12-11T14:25:56.313Z,92.84
2017-12-11T14:31:59.889Z,92.20
2017-12-11T14:38:03.541Z,92.43
2017-12-11T14:44:07.856Z,92.60
2017-12-11T14:50:11.506Z,93.07
2017-12-11T14:56:15.085Z,93.37
2017-12-11T15:02:18.621Z,93.58
2017-12-11T15:08:22.802Z,94.59
2017-12-11T15:14:26.393Z,94.92
2017-12-11T15:20:30.697Z,94.94
2017-12-11T15:26:34.372Z,94.02
2017-12-11T15:32:37.912Z,93.63
2017-12-11T15:38:41.932Z,93.50
2017-12-11T15:44:45.519Z,93.50
2017-12-11T15:50:49.060Z,93.14
2017-12-11T15:56:53.412Z,93.26
2017-12-11T16:02:56.950Z,94.67
2017-12-11T16:09:00.538Z,94.75
2017-12-11T16:15:04.848Z,93.93
2017-12-11T16:21:08.407Z,93.61
2017-12-11T16:27:11.975Z,93.43
2017-12-11T16:33:15.697Z,92.80
2017-12-11T16:39:19.259Z,92.06
2017-12-11T16:45:23.646Z,92.64
2017-12-11T16:51:27.257Z,93.74
2017-12-11T16:57:30.823Z,93.12
2017-12-11T17:03:34.365Z,93.10
2017-12-11T17:09:37.886Z,93.69
2017-12-11T17:15:41.406Z,93.18
2017-12-11T17:21:45.837Z,92.82
2017-12-11T17:27:49.407Z,92.99
2017-12-11T17:33:53.241Z,93.94
2017-12-11T17:39:56.954Z,93.85
2017-12-11T17:46:00.509Z,93.69
2017-12-11T17:52:04.115Z,94.41
2017-12-11T17:58:07.795Z,94.25
2017-12-11T18:04:11.377Z,93.97
2017-12-11T18:10:14.919Z,93.63
2017-12-11T18:16:18.490Z,93.74
2017-12-11T18:22:22.286Z,93.60
2017-12-11T18:28:25.972Z,93.93
2017-12-11T18:34:29.491Z,93.73
2017-12-11T18:40:33.170Z,93.07
2017-12-11T18:46:36.835Z,93.11
2017-12-11T18:52:40.422Z,92.55
2017-12-11T18:58:43.981Z,93.36
2017-12-11T19:04:47.860Z,92.77
2017-12-11T19:10:52.186Z,93.33
2017-12-11T19:16:56.391Z,92.45
2017-12-11T19:23:00.731Z,92.16
2017-12-11T19:29:04.328Z,92.64
2017-12-11T19:35:07.943Z,92.64
2017-12-11T19:41:11.488Z,93.22
2017-12-11T19:47:15.080Z,93.01
2017-12-11T19:53:18.864Z,94.75
2017-12-11T19:59:24.225Z,94.43
2017-12-11T20:05:27.787Z,92.89
2017-12-11T20:11:31.346Z,92.17
2017-12-11T20:17:34.878Z,91.54
2017-12-11T20:23:38.484Z,90.83
2017-12-11T20:29:42.789Z,89.94
2017-12-11T20:35:46.304Z,90.60
2017-12-11T20:41:49.825Z,90.40
2017-12-11T20:47:53.831Z,90.42
2017-12-11T20:53:57.420Z,90.57
2017-12-11T21:00:00.962Z,90.81
2017-12-11T21:06:04.499Z,90.81
2017-12-11T21:12:08.788Z,90.54
2017-12-11T21:18:12.316Z,90.00
2017-12-11T21:24:16.133Z,89.86
2017-12-11T21:30:19.689Z,89.09
2017-12-11T21:36:23.203Z,89.02
2017-12-11T21:42:27.648Z,89.25
2017-12-11T21:48:31.196Z,88.32
2017-12-11T21:54:34.710Z,89.60
2017-12-11T22:00:38.246Z,89.57
2017-12-11T22:06:42.558Z,89.22
2017-12-11T22:12:46.072Z,88.72
2017-12-11T22:18:50.586Z,89.10
2017-12-11T22:24:54.447Z,88.14
2017-12-11T22:30:58.140Z,87.99
2017-12-11T22:37:02.480Z,88.12
2017-12-11T22:43:06.062Z,88.37
2017-12-11T22:49:09.827Z,88.86
2017-12-11T22:55:13.498Z,88.46
2017-12-11T23:01:17.240Z,87.97
2017-12-11T23:07:21.107Z,87.71
2017-12-11T23:13:25.059Z,87.11
2017-12-11T23:19:28.810Z,87.74
2017-12-11T23:25:32.387Z,86.36
2017-12-11T23:31:36.112Z,84.68
2017-12-11T23:37:39.681Z,84.80
2017-12-11T23:43:43.189Z,85.56
2017-12-11T23:49:46.770Z,84.62
2017-12-11T23:55:51.904Z,83.54
